Traverse City, MI

3:59 AM EDT on June 03, 2015 (GMT -0400)
Hills of Westbrook | | Change Station
CLOSE
Current Station
Personal Weather Station
Location: Traverse City, MI
Elevation: 1043 ft
Nearby Weather Stations

Elev 1043 ft 44.76 °N, 85.69 °W | Updated 14 seconds ago

Clear
Clear
52.2 °F
Feels Like 52.2 °F
N
4.3
Wind Variable Wind from SSE
Gusts 4.9 mph

Today
High -- | Low -- °F
--% Chance of Precip.
Yesterday
High -- | Low -- °F
Precip. -- in
5:59 AM 9:23 PM
Full, 100% visible
Pressure 30.10 in
Visibility 10.0 miles
Clouds Clear
Dew Point 42 °F
Humidity 69%
Rainfall 0.00 in
Snow Depth Not available.
UV 0 out of 12
Pollen 7.60 out of 12
Air Quality Not available.
Flu Activity Sporadic
METAR KTVC 030753Z 00000KT 10SM CLR 07/05 A3009 RMK AO2 SLP191 T00670050

More Conditions Fewer Conditions

Pressure 30.10 in
Visibility 10.0 miles
Clouds Clear
Dew Point 42 °F
Humidity 69%
Rainfall 0.00 in
Snow Depth Not available.
UV 0 out of 12
Pollen 7.60 out of 12
Air Quality Not available.
Flu Activity Sporadic
METAR KTVC 030753Z 00000KT 10SM CLR 07/05 A3009 RMK AO2 SLP191 T00670050

More Conditions Fewer Conditions

Nowcast | as of 3:00 am EDT on June 3, 2015

At 4 am...mostly clear. Temperature 45. Light winds. At 6 am...mostly clear. Temperature 45. South winds 5 mph. At 8 am...mostly clear. Temperature 48. South winds 6 mph. At 10 am...mostly clear. Temperature 60. South winds 7 mph.

×

10-Day Weather Forecast

×

Almanac

Astronomy

Jun. 03, 2015 Rise Set
Actual Time
Civil Twilight
Nautical Twilight
Astronomical Twilight
Moon
Length of Visible Light
Length of Day
Tomorrow will be .
, % of the Moon is Illuminated

Today's Extremes

State Highs State Lows

Community

WunderPhotos

Upload Photos

1,826,187 photos uploaded!

WunderBlogs® & News

Nearby

Air Quality

  Air Quality AQ Index Pollutant
Not available.

Snow Depth

Station Depth Elevation

Earthquake Activity

City Distance Mag. Time & Date
Minimum magnitude displayed is 2.5.

Coastal Water Temperatures

Place Temperature

Stations

Nearby Weather Stations

Station Location Temp. Windchill Dew Point Humidity Wind Precip. Elev Updated Type